sensor_id;sensor_type;location;lat;lon;timestamp;pressure;altitude;pressure_sealevel;temperature;humidity
68793;BME280;55778;54.346;10.210;2023-02-10T00:02:21;102592.31;;;3.34;100.00
68793;BME280;55778;54.346;10.210;2023-02-10T00:04:46;102599.47;;;3.35;100.00
68793;BME280;55778;54.346;10.210;2023-02-10T00:07:12;102607.03;;;3.26;100.00
68793;BME280;55778;54.346;10.210;2023-02-10T00:09:37;102605.81;;;3.34;100.00
68793;BME280;55778;54.346;10.210;2023-02-10T00:12:03;102607.03;;;3.26;100.00
68793;BME280;55778;54.346;10.210;2023-02-10T00:14:29;102600.69;;;3.27;100.00
68793;BME280;55778;54.346;10.210;2023-02-10T00:16:55;102606.03;;;3.28;100.00
68793;BME280;55778;54.346;10.210;2023-02-10T00:19:23;102608.94;;;3.22;100.00
68793;BME280;55778;54.346;10.210;2023-02-10T00:21:50;102614.47;;;3.18;100.00
68793;BME280;55778;54.346;10.210;2023-02-10T00:24:15;102600.00;;;3.22;100.00
68793;BME280;55778;54.346;10.210;2023-02-10T00:26:41;102613.50;;;3.20;100.00
68793;BME280;55778;54.346;10.210;2023-02-10T00:29:06;102608.41;;;3.13;100.00
68793;BME280;55778;54.346;10.210;2023-02-10T00:31:32;102608.22;;;3.17;100.00
68793;BME280;55778;54.346;10.210;2023-02-10T00:33:57;102618.44;;;3.08;100.00
68793;BME280;55778;54.346;10.210;2023-02-10T00:36:23;102619.28;;;3.10;100.00
68793;BME280;55778;54.346;10.210;2023-02-10T00:38:50;102607.22;;;3.20;100.00
68793;BME280;55778;54.346;10.210;2023-02-10T00:41:18;102616.91;;;3.25;100.00
68793;BME280;55778;54.346;10.210;2023-02-10T00:43:44;102619.91;;;3.16;100.00
68793;BME280;55778;54.346;10.210;2023-02-10T00:46:11;102618.84;;;3.22;100.00
68793;BME280;55778;54.346;10.210;2023-02-10T00:48:37;102607.72;;;3.06;100.00
68793;BME280;55778;54.346;10.210;2023-02-10T00:51:04;102614.59;;;3.15;100.00
68793;BME280;55778;54.346;10.210;2023-02-10T00:53:29;102616.56;;;3.10;100.00
68793;BME280;55778;54.346;10.210;2023-02-10T00:55:55;102621.66;;;3.19;100.00
68793;BME280;55778;54.346;10.210;2023-02-10T00:58:20;102611.88;;;3.15;100.00
68793;BME280;55778;54.346;10.210;2023-02-10T01:00:47;102614.00;;;3.07;100.00
68793;BME280;55778;54.346;10.210;2023-02-10T01:03:12;102623.25;;;2.98;100.00
68793;BME280;55778;54.346;10.210;2023-02-10T01:05:38;102622.28;;;3.01;100.00
68793;BME280;55778;54.346;10.210;2023-02-10T01:08:04;102620.50;;;3.00;100.00
68793;BME280;55778;54.346;10.210;2023-02-10T01:10:32;102626.03;;;2.95;100.00
68793;BME280;55778;54.346;10.210;2023-02-10T01:13:00;102624.19;;;2.97;100.00
68793;BME280;55778;54.346;10.210;2023-02-10T01:15:25;102633.84;;;3.03;100.00
68793;BME280;55778;54.346;10.210;2023-02-10T01:17:51;102628.16;;;3.12;100.00
68793;BME280;55778;54.346;10.210;2023-02-10T01:20:17;102630.97;;;3.09;100.00
68793;BME280;55778;54.346;10.210;2023-02-10T01:22:42;102636.03;;;3.18;100.00
68793;BME280;55778;54.346;10.210;2023-02-10T01:25:08;102629.63;;;3.22;100.00
68793;BME280;55778;54.346;10.210;2023-02-10T01:27:33;102630.38;;;3.25;100.00
68793;BME280;55778;54.346;10.210;2023-02-10T01:29:58;102624.94;;;3.27;100.00
68793;BME280;55778;54.346;10.210;2023-02-10T01:32:24;102626.88;;;3.48;100.00
68793;BME280;55778;54.346;10.210;2023-02-10T01:34:49;102625.16;;;3.45;100.00
68793;BME280;55778;54.346;10.210;2023-02-10T01:37:15;102623.16;;;3.50;100.00
68793;BME280;55778;54.346;10.210;2023-02-10T01:39:40;102621.47;;;3.48;100.00
68793;BME280;55778;54.346;10.210;2023-02-10T01:42:06;102621.63;;;3.43;100.00
68793;BME280;55778;54.346;10.210;2023-02-10T01:46:57;102622.31;;;3.50;100.00
68793;BME280;55778;54.346;10.210;2023-02-10T01:49:28;102623.09;;;3.52;100.00
68793;BME280;55778;54.346;10.210;2023-02-10T01:52:00;102616.19;;;3.45;100.00
68793;BME280;55778;54.346;10.210;2023-02-10T01:54:32;102624.50;;;3.63;100.00
68793;BME280;55778;54.346;10.210;2023-02-10T01:57:00;102615.34;;;3.67;100.00
68793;BME280;55778;54.346;10.210;2023-02-10T01:59:30;102612.66;;;3.67;100.00
68793;BME280;55778;54.346;10.210;2023-02-10T02:01:57;102619.63;;;3.73;100.00
68793;BME280;55778;54.346;10.210;2023-02-10T02:04:24;102615.47;;;3.64;100.00
68793;BME280;55778;54.346;10.210;2023-02-10T02:06:50;102602.88;;;3.65;100.00
68793;BME280;55778;54.346;10.210;2023-02-10T02:09:15;102606.50;;;3.64;100.00
68793;BME280;55778;54.346;10.210;2023-02-10T02:17:00;102606.84;;;3.55;100.00
68793;BME280;55778;54.346;10.210;2023-02-10T02:25:35;102608.38;;;3.62;100.00
68793;BME280;55778;54.346;10.210;2023-02-10T02:28:14;102606.50;;;3.64;100.00
68793;BME280;55778;54.346;10.210;2023-02-10T02:33:21;102604.50;;;3.69;100.00
68793;BME280;55778;54.346;10.210;2023-02-10T02:35:57;102599.69;;;3.77;100.00
68793;BME280;55778;54.346;10.210;2023-02-10T02:38:24;102608.91;;;3.71;100.00
68793;BME280;55778;54.346;10.210;2023-02-10T02:40:49;102600.81;;;3.71;100.00
68793;BME280;55778;54.346;10.210;2023-02-10T02:43:15;102606.25;;;3.70;100.00
68793;BME280;55778;54.346;10.210;2023-02-10T02:46:04;102595.38;;;3.73;100.00
68793;BME280;55778;54.346;10.210;2023-02-10T02:49:05;102601.72;;;3.72;100.00
68793;BME280;55778;54.346;10.210;2023-02-10T02:51:39;102606.16;;;3.73;100.00
68793;BME280;55778;54.346;10.210;2023-02-10T02:54:31;102605.44;;;3.68;100.00
68793;BME280;55778;54.346;10.210;2023-02-10T02:57:10;102603.94;;;3.84;100.00
68793;BME280;55778;54.346;10.210;2023-02-10T02:59:53;102606.88;;;3.78;100.00
68793;BME280;55778;54.346;10.210;2023-02-10T03:02:21;102604.13;;;3.79;100.00
68793;BME280;55778;54.346;10.210;2023-02-10T03:04:46;102591.56;;;3.78;100.00
68793;BME280;55778;54.346;10.210;2023-02-10T03:07:13;102596.81;;;3.81;100.00
68793;BME280;55778;54.346;10.210;2023-02-10T03:09:39;102602.09;;;3.84;100.00
68793;BME280;55778;54.346;10.210;2023-02-10T03:12:05;102601.47;;;4.01;100.00
68793;BME280;55778;54.346;10.210;2023-02-10T03:14:31;102615.47;;;4.10;100.00
68793;BME280;55778;54.346;10.210;2023-02-10T03:16:56;102606.00;;;4.00;100.00
68793;BME280;55778;54.346;10.210;2023-02-10T03:19:22;102607.69;;;4.03;100.00
68793;BME280;55778;54.346;10.210;2023-02-10T03:21:47;102605.00;;;4.03;100.00
68793;BME280;55778;54.346;10.210;2023-02-10T03:24:13;102609.56;;;4.01;100.00
68793;BME280;55778;54.346;10.210;2023-02-10T03:26:39;102603.97;;;4.05;100.00
68793;BME280;55778;54.346;10.210;2023-02-10T03:29:05;102593.84;;;4.12;100.00
68793;BME280;55778;54.346;10.210;2023-02-10T03:31:30;102608.69;;;4.00;100.00
68793;BME280;55778;54.346;10.210;2023-02-10T03:33:56;102616.84;;;3.99;100.00
68793;BME280;55778;54.346;10.210;2023-02-10T03:36:21;102617.41;;;4.07;100.00
68793;BME280;55778;54.346;10.210;2023-02-10T03:38:47;102619.22;;;4.06;100.00
68793;BME280;55778;54.346;10.210;2023-02-10T03:41:13;102618.97;;;4.12;100.00
68793;BME280;55778;54.346;10.210;2023-02-10T03:43:39;102621.63;;;4.14;100.00
68793;BME280;55778;54.346;10.210;2023-02-10T03:46:04;102623.22;;;4.20;100.00
68793;BME280;55778;54.346;10.210;2023-02-10T03:48:30;102617.59;;;4.26;100.00
68793;BME280;55778;54.346;10.210;2023-02-10T03:51:01;102615.75;;;4.26;100.00
68793;BME280;55778;54.346;10.210;2023-02-10T03:53:28;102610.03;;;4.34;100.00
68793;BME280;55778;54.346;10.210;2023-02-10T03:55:53;102609.25;;;4.32;100.00
68793;BME280;55778;54.346;10.210;2023-02-10T03:58:19;102609.06;;;4.13;100.00
68793;BME280;55778;54.346;10.210;2023-02-10T04:00:44;102614.41;;;4.14;100.00
68793;BME280;55778;54.346;10.210;2023-02-10T04:03:10;102613.28;;;4.20;100.00
68793;BME280;55778;54.346;10.210;2023-02-10T04:05:35;102615.88;;;4.23;100.00
68793;BME280;55778;54.346;10.210;2023-02-10T04:08:01;102621.06;;;4.28;100.00
68793;BME280;55778;54.346;10.210;2023-02-10T04:10:27;102625.44;;;4.32;100.00
68793;BME280;55778;54.346;10.210;2023-02-10T04:12:53;102619.38;;;4.25;100.00
68793;BME280;55778;54.346;10.210;2023-02-10T04:15:18;102622.03;;;4.27;100.00
68793;BME280;55778;54.346;10.210;2023-02-10T04:17:44;102616.38;;;4.33;100.00
68793;BME280;55778;54.346;10.210;2023-02-10T04:20:10;102624.00;;;4.22;100.00
68793;BME280;55778;54.346;10.210;2023-02-10T04:22:36;102630.13;;;4.48;100.00
68793;BME280;55778;54.346;10.210;2023-02-10T04:25:01;102627.44;;;4.48;100.00
68793;BME280;55778;54.346;10.210;2023-02-10T04:27:27;102619.38;;;4.25;100.00
68793;BME280;55778;54.346;10.210;2023-02-10T04:29:52;102637.69;;;4.17;100.00
68793;BME280;55778;54.346;10.210;2023-02-10T04:32:17;102642.91;;;4.22;100.00
68793;BME280;55778;54.346;10.210;2023-02-10T04:34:43;102653.00;;;4.17;100.00
68793;BME280;55778;54.346;10.210;2023-02-10T04:37:08;102652.31;;;4.11;100.00
68793;BME280;55778;54.346;10.210;2023-02-10T04:39:34;102655.78;;;4.15;100.00
68793;BME280;55778;54.346;10.210;2023-02-10T04:41:59;102656.16;;;4.28;100.00
68793;BME280;55778;54.346;10.210;2023-02-10T04:44:25;102651.59;;;4.30;100.00
68793;BME280;55778;54.346;10.210;2023-02-10T04:46:50;102649.19;;;4.22;100.00
68793;BME280;55778;54.346;10.210;2023-02-10T04:49:16;102647.91;;;4.09;100.00
68793;BME280;55778;54.346;10.210;2023-02-10T04:51:42;102641.41;;;4.14;100.00
68793;BME280;55778;54.346;10.210;2023-02-10T04:54:07;102649.31;;;4.19;100.00
68793;BME280;55778;54.346;10.210;2023-02-10T04:56:33;102648.00;;;4.29;100.00
68793;BME280;55778;54.346;10.210;2023-02-10T04:58:58;102643.69;;;4.25;100.00
68793;BME280;55778;54.346;10.210;2023-02-10T05:01:24;102637.22;;;4.29;100.00
68793;BME280;55778;54.346;10.210;2023-02-10T05:03:49;102658.19;;;4.23;100.00
68793;BME280;55778;54.346;10.210;2023-02-10T05:06:15;102650.88;;;4.25;100.00
68793;BME280;55778;54.346;10.210;2023-02-10T05:08:41;102653.28;;;4.32;100.00
68793;BME280;55778;54.346;10.210;2023-02-10T05:11:14;102653.28;;;4.32;100.00
68793;BME280;55778;54.346;10.210;2023-02-10T05:13:40;102669.41;;;4.34;100.00
68793;BME280;55778;54.346;10.210;2023-02-10T05:16:07;102658.19;;;4.23;100.00
68793;BME280;55778;54.346;10.210;2023-02-10T05:18:33;102650.34;;;4.38;100.00
68793;BME280;55778;54.346;10.210;2023-02-10T05:21:00;102648.59;;;4.37;100.00
68793;BME280;55778;54.346;10.210;2023-02-10T05:23:27;102662.09;;;4.37;100.00
68793;BME280;55778;54.346;10.210;2023-02-10T05:25:53;102667.59;;;4.34;100.00
68793;BME280;55778;54.346;10.210;2023-02-10T05:28:18;102675.41;;;4.42;100.00
68793;BME280;55778;54.346;10.210;2023-02-10T05:30:44;102660.56;;;4.30;100.00
68793;BME280;55778;54.346;10.210;2023-02-10T05:33:09;102665.25;;;4.25;100.00
68793;BME280;55778;54.346;10.210;2023-02-10T05:35:35;102669.88;;;4.22;100.00
68793;BME280;55778;54.346;10.210;2023-02-10T05:38:00;102673.25;;;4.28;100.00
68793;BME280;55778;54.346;10.210;2023-02-10T05:40:29;102672.72;;;4.42;100.00
68793;BME280;55778;54.346;10.210;2023-02-10T05:42:55;102666.53;;;4.38;100.00
68793;BME280;55778;54.346;10.210;2023-02-10T05:45:21;102673.56;;;4.42;100.00
68793;BME280;55778;54.346;10.210;2023-02-10T05:47:46;102666.19;;;4.47;100.00
68793;BME280;55778;54.346;10.210;2023-02-10T05:50:12;102671.25;;;4.33;100.00
68793;BME280;55778;54.346;10.210;2023-02-10T05:52:38;102665.19;;;4.27;100.00
68793;BME280;55778;54.346;10.210;2023-02-10T05:55:04;102659.31;;;4.39;100.00
68793;BME280;55778;54.346;10.210;2023-02-10T05:57:29;102669.06;;;4.43;100.00
68793;BME280;55778;54.346;10.210;2023-02-10T05:59:55;102676.16;;;4.22;100.00
68793;BME280;55778;54.346;10.210;2023-02-10T06:02:20;102680.50;;;4.26;100.00
68793;BME280;55778;54.346;10.210;2023-02-10T06:04:46;102676.66;;;4.33;100.00
68793;BME280;55778;54.346;10.210;2023-02-10T06:07:11;102678.69;;;4.27;100.00
68793;BME280;55778;54.346;10.210;2023-02-10T06:09:37;102678.16;;;4.17;100.00
68793;BME280;55778;54.346;10.210;2023-02-10T06:12:04;102672.75;;;4.17;100.00
68793;BME280;55778;54.346;10.210;2023-02-10T06:14:30;102680.31;;;4.31;100.00
68793;BME280;55778;54.346;10.210;2023-02-10T06:16:56;102675.41;;;4.18;100.00
68793;BME280;55778;54.346;10.210;2023-02-10T06:19:21;102691.53;;;4.20;100.00
68793;BME280;55778;54.346;10.210;2023-02-10T06:21:47;102687.09;;;4.19;100.00
68793;BME280;55778;54.346;10.210;2023-02-10T06:24:12;102694.41;;;4.15;100.00
68793;BME280;55778;54.346;10.210;2023-02-10T06:26:38;102706.09;;;4.16;100.00
68793;BME280;55778;54.346;10.210;2023-02-10T06:29:03;102704.72;;;4.28;100.00
68793;BME280;55778;54.346;10.210;2023-02-10T06:31:29;102710.72;;;4.36;100.00
68793;BME280;55778;54.346;10.210;2023-02-10T06:33:54;102724.22;;;4.36;100.00
68793;BME280;55778;54.346;10.210;2023-02-10T06:36:20;102717.47;;;4.47;100.00
68793;BME280;55778;54.346;10.210;2023-02-10T06:38:45;102722.75;;;4.50;100.00
68793;BME280;55778;54.346;10.210;2023-02-10T06:41:13;102726.91;;;4.36;100.00
68793;BME280;55778;54.346;10.210;2023-02-10T06:43:38;102724.16;;;4.37;100.00
68793;BME280;55778;54.346;10.210;2023-02-10T06:46:04;102730.50;;;4.36;100.00
68793;BME280;55778;54.346;10.210;2023-02-10T06:48:29;102730.75;;;4.30;100.00
68793;BME280;55778;54.346;10.210;2023-02-10T06:50:55;102733.66;;;4.24;100.00
68793;BME280;55778;54.346;10.210;2023-02-10T06:53:20;102724.28;;;4.34;100.00
68793;BME280;55778;54.346;10.210;2023-02-10T06:55:46;102733.84;;;4.43;100.00
68793;BME280;55778;54.346;10.210;2023-02-10T06:58:11;102734.72;;;4.43;100.00
68793;BME280;55778;54.346;10.210;2023-02-10T07:00:37;102734.84;;;4.40;100.00
68793;BME280;55778;54.346;10.210;2023-02-10T07:03:04;102733.53;;;4.50;100.00
68793;BME280;55778;54.346;10.210;2023-02-10T07:05:30;102724.56;;;4.50;100.00
68793;BME280;55778;54.346;10.210;2023-02-10T07:07:56;102734.66;;;4.45;100.00
68793;BME280;55778;54.346;10.210;2023-02-10T07:10:24;102733.84;;;4.43;100.00
68793;BME280;55778;54.346;10.210;2023-02-10T07:12:49;102735.66;;;4.65;100.00
68793;BME280;55778;54.346;10.210;2023-02-10T07:15:17;102739.53;;;4.58;100.00
68793;BME280;55778;54.346;10.210;2023-02-10T07:17:44;102737.06;;;4.52;100.00
68793;BME280;55778;54.346;10.210;2023-02-10T07:20:10;102736.28;;;4.49;100.00
68793;BME280;55778;54.346;10.210;2023-02-10T07:22:35;102736.13;;;4.53;100.00
68793;BME280;55778;54.346;10.210;2023-02-10T07:25:01;102740.75;;;4.50;100.00
68793;BME280;55778;54.346;10.210;2023-02-10T07:27:26;102738.81;;;4.53;100.00
68793;BME280;55778;54.346;10.210;2023-02-10T07:29:52;102736.72;;;4.61;100.00
68793;BME280;55778;54.346;10.210;2023-02-10T07:32:17;102743.16;;;4.57;100.00
68793;BME280;55778;54.346;10.210;2023-02-10T07:34:43;102743.69;;;4.67;100.00
68793;BME280;55778;54.346;10.210;2023-02-10T07:37:08;102742.13;;;4.61;100.00
68793;BME280;55778;54.346;10.210;2023-02-10T07:39:34;102740.63;;;4.76;100.00
68793;BME280;55778;54.346;10.210;2023-02-10T07:42:00;102745.50;;;4.66;100.00
68793;BME280;55778;54.346;10.210;2023-02-10T07:44:25;102758.75;;;4.72;100.00
68793;BME280;55778;54.346;10.210;2023-02-10T07:46:51;102740.25;;;4.85;100.00
68793;BME280;55778;54.346;10.210;2023-02-10T07:49:17;102739.75;;;4.75;100.00
68793;BME280;55778;54.346;10.210;2023-02-10T07:51:46;102744.97;;;4.80;100.00
68793;BME280;55778;54.346;10.210;2023-02-10T07:54:11;102745.78;;;4.82;100.00
68793;BME280;55778;54.346;10.210;2023-02-10T07:56:36;102755.09;;;4.75;100.00
68793;BME280;55778;54.346;10.210;2023-02-10T07:59:02;102760.53;;;4.73;100.00
68793;BME280;55778;54.346;10.210;2023-02-10T08:01:28;102761.41;;;4.74;100.00
68793;BME280;55778;54.346;10.210;2023-02-10T08:03:53;102773.84;;;4.78;100.00
68793;BME280;55778;54.346;10.210;2023-02-10T08:06:21;102774.38;;;4.87;100.00
68793;BME280;55778;54.346;10.210;2023-02-10T08:08:47;102766.25;;;4.87;100.00
68793;BME280;55778;54.346;10.210;2023-02-10T08:11:12;102760.38;;;4.99;100.00
68793;BME280;55778;54.346;10.210;2023-02-10T08:13:38;102765.53;;;5.05;100.00
68793;BME280;55778;54.346;10.210;2023-02-10T08:16:04;102761.88;;;4.85;100.00
68793;BME280;55778;54.346;10.210;2023-02-10T08:18:30;102760.78;;;4.89;100.00
68793;BME280;55778;54.346;10.210;2023-02-10T08:20:58;102756.34;;;4.88;100.00
68793;BME280;55778;54.346;10.210;2023-02-10T08:23:24;102761.94;;;4.83;100.00
68793;BME280;55778;54.346;10.210;2023-02-10T08:25:49;102763.06;;;4.99;100.00
68793;BME280;55778;54.346;10.210;2023-02-10T08:28:16;102766.13;;;4.90;100.00
68793;BME280;55778;54.346;10.210;2023-02-10T08:30:42;102765.06;;;4.94;100.00
68793;BME280;55778;54.346;10.210;2023-02-10T08:33:07;102761.56;;;4.92;100.00
68793;BME280;55778;54.346;10.210;2023-02-10T08:35:35;102768.13;;;4.85;100.00
68793;BME280;55778;54.346;10.210;2023-02-10T08:38:01;102774.47;;;5.07;100.00
68793;BME280;55778;54.346;10.210;2023-02-10T08:40:26;102780.94;;;5.25;100.00
68793;BME280;55778;54.346;10.210;2023-02-10T08:42:51;102770.69;;;5.11;100.00
68793;BME280;55778;54.346;10.210;2023-02-10T08:45:17;102779.22;;;5.22;100.00
68793;BME280;55778;54.346;10.210;2023-02-10T08:47:42;102777.97;;;5.31;100.00
68793;BME280;55778;54.346;10.210;2023-02-10T08:50:08;102786.81;;;5.34;100.00
68793;BME280;55778;54.346;10.210;2023-02-10T08:52:33;102784.19;;;5.33;100.00
68793;BME280;55778;54.346;10.210;2023-02-10T08:54:59;102782.56;;;5.29;100.00
68793;BME280;55778;54.346;10.210;2023-02-10T08:57:25;102784.88;;;5.16;100.00
68793;BME280;55778;54.346;10.210;2023-02-10T08:59:50;102791.28;;;5.14;100.00
68793;BME280;55778;54.346;10.210;2023-02-10T09:02:15;102792.72;;;5.22;100.00
68793;BME280;55778;54.346;10.210;2023-02-10T09:04:41;102796.91;;;5.31;100.00
68793;BME280;55778;54.346;10.210;2023-02-10T09:07:07;102792.03;;;5.39;100.00
68793;BME280;55778;54.346;10.210;2023-02-10T09:09:38;102794.63;;;5.42;100.00
68793;BME280;55778;54.346;10.210;2023-02-10T09:12:06;102796.00;;;5.30;100.00
68793;BME280;55778;54.346;10.210;2023-02-10T09:14:34;102791.66;;;5.48;100.00
68793;BME280;55778;54.346;10.210;2023-02-10T09:17:00;102800.28;;;5.57;100.00
68793;BME280;55778;54.346;10.210;2023-02-10T09:19:25;102797.13;;;5.46;100.00
68793;BME280;55778;54.346;10.210;2023-02-10T09:21:51;102794.81;;;5.59;100.00
68793;BME280;55778;54.346;10.210;2023-02-10T09:24:17;102795.41;;;5.65;100.00
68793;BME280;55778;54.346;10.210;2023-02-10T09:26:43;102791.53;;;5.51;100.00
68793;BME280;55778;54.346;10.210;2023-02-10T09:29:09;102783.09;;;5.58;100.00
68793;BME280;55778;54.346;10.210;2023-02-10T09:31:36;102792.94;;;5.39;100.00
68793;BME280;55778;54.346;10.210;2023-02-10T09:34:02;102790.16;;;5.41;100.00
68793;BME280;55778;54.346;10.210;2023-02-10T09:36:27;102779.22;;;5.44;100.00
68793;BME280;55778;54.346;10.210;2023-02-10T09:38:54;102792.72;;;5.22;100.00
68793;BME280;55778;54.346;10.210;2023-02-10T09:44:22;102791.59;;;5.71;100.00
68793;BME280;55778;54.346;10.210;2023-02-10T09:49:44;102794.16;;;5.74;100.00
68793;BME280;55778;54.346;10.210;2023-02-10T09:55:01;102796.38;;;5.64;100.00
68793;BME280;55778;54.346;10.210;2023-02-10T09:57:34;102799.19;;;5.61;100.00
68793;BME280;55778;54.346;10.210;2023-02-10T10:00:03;102798.06;;;5.67;100.00
68793;BME280;55778;54.346;10.210;2023-02-10T10:02:42;102807.00;;;5.69;100.00
68793;BME280;55778;54.346;10.210;2023-02-10T10:08:04;102811.53;;;5.90;100.00
68793;BME280;55778;54.346;10.210;2023-02-10T10:10:42;102813.66;;;5.82;100.00
68793;BME280;55778;54.346;10.210;2023-02-10T10:13:22;102813.81;;;5.57;100.00
68793;BME280;55778;54.346;10.210;2023-02-10T10:18:56;102812.66;;;5.63;100.00
68793;BME280;55778;54.346;10.210;2023-02-10T10:21:46;102814.84;;;5.53;100.00
68793;BME280;55778;54.346;10.210;2023-02-10T10:35:15;102810.81;;;5.85;100.00
68793;BME280;55778;54.346;10.210;2023-02-10T10:37:41;102809.06;;;6.04;100.00
68793;BME280;55778;54.346;10.210;2023-02-10T10:40:15;102809.81;;;5.87;100.00
68793;BME280;55778;54.346;10.210;2023-02-10T10:42:45;102812.00;;;5.78;100.00
68793;BME280;55778;54.346;10.210;2023-02-10T10:45:16;102812.22;;;5.73;100.00
68793;BME280;55778;54.346;10.210;2023-02-10T10:47:56;102807.09;;;5.87;100.00
68793;BME280;55778;54.346;10.210;2023-02-10T10:50:24;102799.50;;;6.17;100.00
68793;BME280;55778;54.346;10.210;2023-02-10T10:52:52;102791.50;;;5.94;100.00
68793;BME280;55778;54.346;10.210;2023-02-10T10:55:22;102793.63;;;6.26;100.00
68793;BME280;55778;54.346;10.210;2023-02-10T10:57:52;102790.31;;;6.40;100.00
68793;BME280;55778;54.346;10.210;2023-02-10T11:00:24;102790.06;;;6.26;100.00
68793;BME280;55778;54.346;10.210;2023-02-10T11:03:02;102788.00;;;6.69;99.55
68793;BME280;55778;54.346;10.210;2023-02-10T11:05:31;102783.34;;;6.73;99.95
68793;BME280;55778;54.346;10.210;2023-02-10T11:07:57;102786.97;;;6.53;98.89
68793;BME280;55778;54.346;10.210;2023-02-10T11:12:58;102782.94;;;6.62;98.10
68793;BME280;55778;54.346;10.210;2023-02-10T11:15:48;102783.78;;;6.64;97.66
68793;BME280;55778;54.346;10.210;2023-02-10T11:18:21;102789.19;;;6.45;98.07
68793;BME280;55778;54.346;10.210;2023-02-10T11:21:02;102777.44;;;6.45;98.29
68793;BME280;55778;54.346;10.210;2023-02-10T11:23:28;102788.28;;;6.45;98.88
68793;BME280;55778;54.346;10.210;2023-02-10T11:25:58;102789.75;;;6.52;98.18
68793;BME280;55778;54.346;10.210;2023-02-10T11:28:26;102778.69;;;6.38;98.68
68793;BME280;55778;54.346;10.210;2023-02-10T11:31:05;102774.88;;;6.42;98.47
68793;BME280;55778;54.346;10.210;2023-02-10T11:33:33;102774.75;;;6.45;98.36
68793;BME280;55778;54.346;10.210;2023-02-10T11:36:04;102763.50;;;6.34;98.44
68793;BME280;55778;54.346;10.210;2023-02-10T11:38:31;102766.69;;;6.43;98.23
68793;BME280;55778;54.346;10.210;2023-02-10T11:40:59;102763.66;;;6.31;98.36
68793;BME280;55778;54.346;10.210;2023-02-10T11:43:37;102769.34;;;6.25;98.09
68793;BME280;55778;54.346;10.210;2023-02-10T11:46:06;102760.84;;;6.13;99.20
68793;BME280;55778;54.346;10.210;2023-02-10T11:48:34;102757.38;;;6.10;99.51
68793;BME280;55778;54.346;10.210;2023-02-10T11:51:18;102753.28;;;6.22;99.55
68793;BME280;55778;54.346;10.210;2023-02-10T11:53:44;102735.25;;;6.21;98.90
68793;BME280;55778;54.346;10.210;2023-02-10T12:08:02;102731.69;;;6.39;97.78
68793;BME280;55778;54.346;10.210;2023-02-10T12:10:47;102734.19;;;6.43;97.60
68793;BME280;55778;54.346;10.210;2023-02-10T12:24:05;102732.06;;;6.31;97.69
68793;BME280;55778;54.346;10.210;2023-02-10T12:26:54;102723.50;;;6.22;98.07
68793;BME280;55778;54.346;10.210;2023-02-10T12:32:15;102709.97;;;6.22;98.91
68793;BME280;55778;54.346;10.210;2023-02-10T12:53:55;102693.41;;;6.28;98.09
68793;BME280;55778;54.346;10.210;2023-02-10T12:56:24;102694.56;;;6.22;99.06
68793;BME280;55778;54.346;10.210;2023-02-10T12:59:14;102700.59;;;6.29;98.04
68793;BME280;55778;54.346;10.210;2023-02-10T13:01:50;102701.66;;;6.25;98.81
68793;BME280;55778;54.346;10.210;2023-02-10T13:04:23;102701.66;;;6.25;98.19
68793;BME280;55778;54.346;10.210;2023-02-10T13:06:56;102694.50;;;6.24;98.16
68793;BME280;55778;54.346;10.210;2023-02-10T13:09:32;102695.50;;;6.02;98.80
68793;BME280;55778;54.346;10.210;2023-02-10T13:14:31;102680.41;;;6.17;98.28
68793;BME280;55778;54.346;10.210;2023-02-10T13:17:01;102662.47;;;6.33;97.38
68793;BME280;55778;54.346;10.210;2023-02-10T13:22:02;102660.03;;;6.46;96.60
68793;BME280;55778;54.346;10.210;2023-02-10T13:24:48;102665.34;;;6.30;97.09
68793;BME280;55778;54.346;10.210;2023-02-10T13:35:28;102632.75;;;6.13;98.12
68793;BME280;55778;54.346;10.210;2023-02-10T13:37:57;102636.78;;;6.04;98.34
68793;BME280;55778;54.346;10.210;2023-02-10T13:40:28;102641.28;;;6.04;98.48
68793;BME280;55778;54.346;10.210;2023-02-10T13:43:03;102636.09;;;5.99;98.76
68793;BME280;55778;54.346;10.210;2023-02-10T13:45:33;102647.25;;;6.12;98.10
68793;BME280;55778;54.346;10.210;2023-02-10T13:48:03;102643.16;;;6.03;98.54
68793;BME280;55778;54.346;10.210;2023-02-10T14:03:56;102619.56;;;6.05;98.20
68793;BME280;55778;54.346;10.210;2023-02-10T14:06:32;102613.94;;;6.10;98.04
68793;BME280;55778;54.346;10.210;2023-02-10T14:11:48;102604.44;;;6.01;96.81
68793;BME280;55778;54.346;10.210;2023-02-10T14:16:48;102616.56;;;6.11;95.65
68793;BME280;55778;54.346;10.210;2023-02-10T14:21:47;102588.50;;;5.95;95.60
68793;BME280;55778;54.346;10.210;2023-02-10T14:24:17;102602.69;;;6.00;95.56
68793;BME280;55778;54.346;10.210;2023-02-10T14:26:44;102610.69;;;5.83;96.48
68793;BME280;55778;54.346;10.210;2023-02-10T14:29:14;102608.75;;;5.87;95.63
68793;BME280;55778;54.346;10.210;2023-02-10T14:31:42;102608.09;;;5.80;95.50
68793;BME280;55778;54.346;10.210;2023-02-10T14:34:34;102612.94;;;5.74;95.91
68793;BME280;55778;54.346;10.210;2023-02-10T14:37:22;102596.31;;;5.83;95.97
68793;BME280;55778;54.346;10.210;2023-02-10T14:39:59;102572.63;;;5.88;94.71
68793;BME280;55778;54.346;10.210;2023-02-10T14:42:28;102578.50;;;5.77;95.67
68793;BME280;55778;54.346;10.210;2023-02-10T14:44:56;102565.81;;;5.59;96.00
68793;BME280;55778;54.346;10.210;2023-02-10T14:47:35;102579.72;;;5.70;96.04
68793;BME280;55778;54.346;10.210;2023-02-10T14:50:02;102592.59;;;5.85;94.84
68793;BME280;55778;54.346;10.210;2023-02-10T14:52:29;102585.81;;;5.75;95.10